sensor_id;sensor_type;location;lat;lon;timestamp;temperature;humidity
45315;SHT31;31051;51.540;5.852;2023-06-01T00:08:54;12.7;78.9
45315;SHT31;31051;51.540;5.852;2023-06-01T00:21:53;12.3;79.5
45315;SHT31;31051;51.540;5.852;2023-06-01T00:34:53;12.0;81.3
45315;SHT31;31051;51.540;5.852;2023-06-01T00:47:52;11.8;80.9
45315;SHT31;31051;51.540;5.852;2023-06-01T01:00:51;11.4;80.9
45315;SHT31;31051;51.540;5.852;2023-06-01T01:13:51;11.1;81.7
45315;SHT31;31051;51.540;5.852;2023-06-01T01:26:50;10.9;82.5
45315;SHT31;31051;51.540;5.852;2023-06-01T01:39:49;10.6;82.7
45315;SHT31;31051;51.540;5.852;2023-06-01T01:52:49;10.5;83.6
45315;SHT31;31051;51.540;5.852;2023-06-01T02:05:48;10.3;84.8
45315;SHT31;31051;51.540;5.852;2023-06-01T02:18:47;10.4;85.2
45315;SHT31;31051;51.540;5.852;2023-06-01T02:31:46;10.5;85.2
45315;SHT31;31051;51.540;5.852;2023-06-01T02:44:46;10.6;84.3
45315;SHT31;31051;51.540;5.852;2023-06-01T02:57:45;10.7;84.0
45315;SHT31;31051;51.540;5.852;2023-06-01T03:10:44;10.6;83.3
45315;SHT31;31051;51.540;5.852;2023-06-01T03:23:44;10.7;82.9
45315;SHT31;31051;51.540;5.852;2023-06-01T03:36:43;10.8;82.6
45315;SHT31;31051;51.540;5.852;2023-06-01T03:49:42;10.8;81.3
45315;SHT31;31051;51.540;5.852;2023-06-01T04:02:42;10.7;80.9
45315;SHT31;31051;51.540;5.852;2023-06-01T04:15:41;11.1;80.4
45315;SHT31;31051;51.540;5.852;2023-06-01T04:28:40;11.3;79.8
45315;SHT31;31051;51.540;5.852;2023-06-01T04:41:40;11.2;78.3
45315;SHT31;31051;51.540;5.852;2023-06-01T04:54:39;11.1;79.2
45315;SHT31;31051;51.540;5.852;2023-06-01T05:07:38;11.3;77.8
45315;SHT31;31051;51.540;5.852;2023-06-01T05:20:38;11.5;77.4
45315;SHT31;31051;51.540;5.852;2023-06-01T05:33:37;11.3;77.5
45315;SHT31;31051;51.540;5.852;2023-06-01T05:46:36;11.3;77.6
45315;SHT31;31051;51.540;5.852;2023-06-01T05:59:35;11.3;77.7
45315;SHT31;31051;51.540;5.852;2023-06-01T06:12:35;11.4;77.7
45315;SHT31;31051;51.540;5.852;2023-06-01T06:25:34;12.1;75.6
45315;SHT31;31051;51.540;5.852;2023-06-01T06:38:33;12.3;73.8
45315;SHT31;31051;51.540;5.852;2023-06-01T06:51:33;12.2;74.3
45315;SHT31;31051;51.540;5.852;2023-06-01T07:04:32;12.5;72.9
45315;SHT31;31051;51.540;5.852;2023-06-01T07:17:31;13.0;72.6
45315;SHT31;31051;51.540;5.852;2023-06-01T07:30:31;13.5;70.7
45315;SHT31;31051;51.540;5.852;2023-06-01T07:43:29;14.4;68.3
45315;SHT31;31051;51.540;5.852;2023-06-01T07:56:18;14.2;66.9
45315;SHT31;31051;51.540;5.852;2023-06-01T08:09:18;14.5;65.6
45315;SHT31;31051;51.540;5.852;2023-06-01T08:22:17;15.2;64.0
45315;SHT31;31051;51.540;5.852;2023-06-01T08:35:15;15.5;62.9
45315;SHT31;31051;51.540;5.852;2023-06-01T08:48:05;15.8;62.4
45315;SHT31;31051;51.540;5.852;2023-06-01T09:01:03;17.1;58.1
45315;SHT31;31051;51.540;5.852;2023-06-01T09:13:51;17.1;58.2
45315;SHT31;31051;51.540;5.852;2023-06-01T09:26:41;17.4;58.2
45315;SHT31;31051;51.540;5.852;2023-06-01T09:39:40;17.9;56.6
45315;SHT31;31051;51.540;5.852;2023-06-01T09:52:40;18.2;54.1
45315;SHT31;31051;51.540;5.852;2023-06-01T10:05:38;18.8;53.6
45315;SHT31;31051;51.540;5.852;2023-06-01T10:18:27;18.5;55.2
45315;SHT31;31051;51.540;5.852;2023-06-01T10:31:26;19.2;52.8
45315;SHT31;31051;51.540;5.852;2023-06-01T10:44:15;19.4;52.3
45315;SHT31;31051;51.540;5.852;2023-06-01T10:57:14;20.3;51.9
45315;SHT31;31051;51.540;5.852;2023-06-01T11:10:03;20.7;50.7
45315;SHT31;31051;51.540;5.852;2023-06-01T11:23:01;20.5;52.0
45315;SHT31;31051;51.540;5.852;2023-06-01T11:35:51;21.4;50.8
45315;SHT31;31051;51.540;5.852;2023-06-01T11:48:50;21.7;48.1
45315;SHT31;31051;51.540;5.852;2023-06-01T12:01:49;22.0;46.4
45315;SHT31;31051;51.540;5.852;2023-06-01T12:14:37;21.6;47.3
45315;SHT31;31051;51.540;5.852;2023-06-01T12:27:26;22.1;44.8
45315;SHT31;31051;51.540;5.852;2023-06-01T12:40:14;22.7;42.3
45315;SHT31;31051;51.540;5.852;2023-06-01T12:53:02;22.3;45.5
45315;SHT31;31051;51.540;5.852;2023-06-01T13:05:51;22.9;44.6
45315;SHT31;31051;51.540;5.852;2023-06-01T13:18:39;22.6;44.0
45315;SHT31;31051;51.540;5.852;2023-06-01T13:31:27;22.5;44.1
45315;SHT31;31051;51.540;5.852;2023-06-01T13:44:16;22.5;44.7
45315;SHT31;31051;51.540;5.852;2023-06-01T13:57:04;22.6;42.7
45315;SHT31;31051;51.540;5.852;2023-06-01T14:09:53;22.6;43.3
45315;SHT31;31051;51.540;5.852;2023-06-01T14:22:41;22.3;42.5
45315;SHT31;31051;51.540;5.852;2023-06-01T14:35:29;21.9;44.0
45315;SHT31;31051;51.540;5.852;2023-06-01T14:48:18;21.8;47.6
45315;SHT31;31051;51.540;5.852;2023-06-01T15:01:07;21.6;48.2
45315;SHT31;31051;51.540;5.852;2023-06-01T15:14:06;20.8;53.7
45315;SHT31;31051;51.540;5.852;2023-06-01T15:27:05;20.2;55.9
45315;SHT31;31051;51.540;5.852;2023-06-01T15:39:53;19.9;57.1
45315;SHT31;31051;51.540;5.852;2023-06-01T15:52:42;19.4;57.7
45315;SHT31;31051;51.540;5.852;2023-06-01T16:05:30;19.5;57.4
45315;SHT31;31051;51.540;5.852;2023-06-01T16:18:18;19.3;57.4
45315;SHT31;31051;51.540;5.852;2023-06-01T16:31:07;18.9;57.3
45315;SHT31;31051;51.540;5.852;2023-06-01T16:43:55;18.5;59.0
45315;SHT31;31051;51.540;5.852;2023-06-01T16:56:44;18.3;58.6
45315;SHT31;31051;51.540;5.852;2023-06-01T17:09:43;17.8;59.4
45315;SHT31;31051;51.540;5.852;2023-06-01T17:22:32;17.6;60.2
45315;SHT31;31051;51.540;5.852;2023-06-01T17:35:31;17.3;60.4
45315;SHT31;31051;51.540;5.852;2023-06-01T17:48:19;16.9;62.0
45315;SHT31;31051;51.540;5.852;2023-06-01T18:01:07;16.4;63.1
45315;SHT31;31051;51.540;5.852;2023-06-01T18:13:56;16.4;62.4
45315;SHT31;31051;51.540;5.852;2023-06-01T18:26:56;16.3;63.0
45315;SHT31;31051;51.540;5.852;2023-06-01T18:39:55;15.8;64.0
45315;SHT31;31051;51.540;5.852;2023-06-01T18:52:55;15.5;65.1
45315;SHT31;31051;51.540;5.852;2023-06-01T19:05:54;15.0;66.3
45315;SHT31;31051;51.540;5.852;2023-06-01T19:18:53;14.6;67.3
45315;SHT31;31051;51.540;5.852;2023-06-01T19:31:53;14.4;67.0
45315;SHT31;31051;51.540;5.852;2023-06-01T19:44:52;14.0;67.7
45315;SHT31;31051;51.540;5.852;2023-06-01T19:57:51;13.9;67.2
45315;SHT31;31051;51.540;5.852;2023-06-01T20:10:51;13.7;67.3
45315;SHT31;31051;51.540;5.852;2023-06-01T20:23:50;13.6;67.9
45315;SHT31;31051;51.540;5.852;2023-06-01T20:36:49;13.6;68.3
45315;SHT31;31051;51.540;5.852;2023-06-01T20:49:49;13.5;67.4
45315;SHT31;31051;51.540;5.852;2023-06-01T21:02:48;13.1;67.1
45315;SHT31;31051;51.540;5.852;2023-06-01T21:15:47;13.0;67.2
45315;SHT31;31051;51.540;5.852;2023-06-01T21:28:47;12.9;67.8
45315;SHT31;31051;51.540;5.852;2023-06-01T21:41:46;13.0;67.7
45315;SHT31;31051;51.540;5.852;2023-06-01T21:54:45;13.0;67.2
45315;SHT31;31051;51.540;5.852;2023-06-01T22:07:45;12.9;68.0
45315;SHT31;31051;51.540;5.852;2023-06-01T22:20:44;12.8;67.1
45315;SHT31;31051;51.540;5.852;2023-06-01T22:33:43;12.4;67.5
45315;SHT31;31051;51.540;5.852;2023-06-01T22:46:43;12.3;68.4
45315;SHT31;31051;51.540;5.852;2023-06-01T22:59:42;12.3;69.0
45315;SHT31;31051;51.540;5.852;2023-06-01T23:12:41;12.2;69.4
45315;SHT31;31051;51.540;5.852;2023-06-01T23:25:41;12.2;69.8
45315;SHT31;31051;51.540;5.852;2023-06-01T23:38:40;12.1;69.6
45315;SHT31;31051;51.540;5.852;2023-06-01T23:51:39;12.1;69.2
